Accueil
METAR-TAF:

METAR-TAF

Aéroports :

Vidalia Regional Airport

Vidalia, Géorgie, États-Unis

latitude: 32-11-33N, longitude: 082-22-19W, altitude: 84 m

Observation

Le bulletin a été fait il y a 19 minutes, à 12:35 UTC
Vent 3 kt de ouest/sud-ouest
Température 16°C
Humidité 68%
Pression 1015 hPa
Visibilité: 16.1 km
Nuages fragmentés à une hauteur de 12000 ft

METAR: KVDI 041235Z AUTO 25003KT 10SM BKN120 16/10 A2996 RMK AO2

Heure: 08:54 (12:54 UTC)


TAF: absent

Observations et prévisions météorologiques de plus de 4000 aéroports (messages METAR et TAF).

Les stations disponibles sont représentées par des disques jaunes et rouges sur la carte.

Passer la souris dessus pour voir le nom de la station.

Cliquer dessus pour voir les observations et prévisions météorologiques.

Pour changer de carte: cliquez sur les boutons verts avec une croix noire pour zoomer, sur le bouton vert avec un tiret pour effectuer un zoom arrière, ou sur les flèches vertes pour les cartes adjacentes.


METAR-TAF: